logo
Rechercher aéroport 
image banner adimage banner adimage banner ad
image banner ad

EGDI - Merryfield

Situé à Ilminster, United Kingdom

ICAO - , IATA -

Données fournies par Airmate  

Information générale

Coordonnées: N50°57'45" W2°56'8"
Élévation : 144 feet MSL.
Variation magnétique : -1° East
Voir autres Aéroports à England

Données opérationnelles

Special qualification required
Heure actuelle UTC:
Heure actuelle locale:
Météo à : EGDY - Yeovilton ( 21 km )
METAR: EGDY 041520Z AUTO 23005KT 9999 OVC040/// 10/05 Q1038
TAF: TAF EGDY 061330Z 0615/0624 04002KT CAVOK BECMG 0617/0620 7000 HZ PROB40 0620/0624 4000 BR
Voir NOTAMs / SUP AIP / TFR affectant cet aéroport [VIEW]
Fréquences de communication: [VIEW]

Pistes:

Identifiant RWYQFULongueur (ft)Largeur (ft)SurfaceLDA (ft)
0985°5810164ASPH5810
27265°5810164ASPH5810
0324°4062164ASPH4062
21204°4062164ASPH4062
16162°3809164ASPH3753
34342°3809164ASPH3402

Coordonnées de l'aéroport

Adresse: Ilminster United Kingdom

Vue satellite de EGDI